createdAt,value
2023-01-10T00:00:48.174Z,3.77
2023-01-10T00:03:11.492Z,3.23
2023-01-10T00:05:33.979Z,3.40
2023-01-10T00:07:56.307Z,4.13
2023-01-10T00:10:18.592Z,3.83
2023-01-10T00:12:59.541Z,4.10
2023-01-10T00:15:22.258Z,3.93
2023-01-10T00:17:44.628Z,4.10
2023-01-10T00:20:07.322Z,3.80
2023-01-10T00:22:29.567Z,4.17
2023-01-10T00:24:52.248Z,4.23
2023-01-10T00:27:20.585Z,4.00
2023-01-10T00:29:42.831Z,4.37
2023-01-10T00:32:05.102Z,5.17
2023-01-10T00:34:27.290Z,3.83
2023-01-10T00:36:49.685Z,4.37
2023-01-10T00:39:11.977Z,4.20
2023-01-10T00:41:52.924Z,4.37
2023-01-10T00:44:15.206Z,4.60
2023-01-10T00:46:37.432Z,4.17
2023-01-10T00:49:00.264Z,4.10
2023-01-10T00:51:22.509Z,4.50
2023-01-10T00:53:44.712Z,4.60
2023-01-10T00:56:07.110Z,4.50
2023-01-10T00:58:29.454Z,4.80
2023-01-10T01:00:52.163Z,4.20
2023-01-10T01:03:14.546Z,3.90
2023-01-10T01:05:43.593Z,4.30
2023-01-10T01:08:05.997Z,4.23
2023-01-10T01:10:28.313Z,5.37
2023-01-10T01:12:50.505Z,4.13
2023-01-10T01:15:12.776Z,4.87
2023-01-10T01:17:35.036Z,4.83
2023-01-10T01:19:57.288Z,3.73
2023-01-10T01:22:20.134Z,4.30
2023-01-10T01:24:42.661Z,4.90
2023-01-10T01:27:04.932Z,4.33
2023-01-10T01:29:35.251Z,4.80
2023-01-10T01:32:04.893Z,4.63
2023-01-10T01:34:27.468Z,4.63
2023-01-10T01:36:51.537Z,5.03
2023-01-10T01:39:13.816Z,4.97
2023-01-10T01:41:54.484Z,4.90
2023-01-10T01:44:18.343Z,5.90
2023-01-10T01:46:41.518Z,4.77
2023-01-10T01:49:06.850Z,5.13
2023-01-10T01:51:30.390Z,5.30
2023-01-10T01:53:58.029Z,4.57
2023-01-10T01:56:25.984Z,4.73
2023-01-10T01:58:50.838Z,4.60
2023-01-10T02:01:13.643Z,4.63
2023-01-10T02:03:36.704Z,4.87
2023-01-10T02:05:59.172Z,5.30
2023-01-10T02:08:21.545Z,5.57
2023-01-10T02:11:02.677Z,5.40
2023-01-10T02:13:26.978Z,5.17
2023-01-10T02:15:49.284Z,5.37
2023-01-10T02:18:11.847Z,5.23
2023-01-10T02:20:44.216Z,6.13
2023-01-10T02:23:06.835Z,5.40
2023-01-10T02:25:38.455Z,5.87
2023-01-10T02:28:12.730Z,5.70
2023-01-10T02:30:53.910Z,5.27
2023-01-10T02:33:16.417Z,5.63
2023-01-10T02:35:41.657Z,5.53
2023-01-10T02:38:24.195Z,5.23
2023-01-10T02:41:05.504Z,5.37
2023-01-10T02:43:30.070Z,5.50
2023-01-10T02:45:59.041Z,5.27
2023-01-10T02:48:21.931Z,5.27
2023-01-10T02:50:47.782Z,5.40
2023-01-10T02:53:12.078Z,4.60
2023-01-10T02:55:54.569Z,5.00
2023-01-10T02:58:35.524Z,6.23
2023-01-10T03:01:15.598Z,5.27
2023-01-10T03:03:46.878Z,5.30
2023-01-10T03:06:09.842Z,4.67
2023-01-10T03:08:40.525Z,4.67
2023-01-10T03:11:04.421Z,5.77
2023-01-10T03:13:32.828Z,6.17
2023-01-10T03:15:55.588Z,4.77
2023-01-10T03:18:34.964Z,5.73
2023-01-10T03:20:58.744Z,5.20
2023-01-10T03:23:23.689Z,5.60
2023-01-10T03:25:46.666Z,5.33
2023-01-10T03:28:11.297Z,5.23
2023-01-10T03:30:40.850Z,4.77
2023-01-10T03:33:04.041Z,4.83
2023-01-10T03:35:35.344Z,4.60
2023-01-10T03:38:02.127Z,5.37
2023-01-10T03:40:37.079Z,4.73
2023-01-10T03:43:22.976Z,4.83
2023-01-10T03:46:08.566Z,5.57
2023-01-10T03:48:32.788Z,5.50
2023-01-10T03:50:55.614Z,5.30
2023-01-10T03:53:18.084Z,4.90
2023-01-10T03:55:42.474Z,5.03
2023-01-10T03:58:04.767Z,4.77
2023-01-10T04:00:27.068Z,4.63
2023-01-10T04:02:51.699Z,5.00
2023-01-10T04:05:14.072Z,5.30
2023-01-10T04:07:36.628Z,5.30
2023-01-10T04:09:58.945Z,4.93
2023-01-10T04:12:21.227Z,5.00
2023-01-10T04:14:45.463Z,4.73
2023-01-10T04:17:07.772Z,4.40
2023-01-10T04:19:30.038Z,5.07
2023-01-10T04:21:52.301Z,4.60
2023-01-10T04:24:14.496Z,5.00
2023-01-10T04:26:36.700Z,4.93
2023-01-10T04:28:59.061Z,4.80
2023-01-10T04:31:22.847Z,4.23
2023-01-10T04:33:45.181Z,3.80
2023-01-10T04:36:08.053Z,4.20
2023-01-10T04:38:30.457Z,4.20
2023-01-10T04:40:53.835Z,4.23
2023-01-10T04:43:16.049Z,4.63
2023-01-10T04:45:38.352Z,4.57
2023-01-10T04:48:00.557Z,5.30
2023-01-10T04:50:23.878Z,4.50
2023-01-10T04:52:46.062Z,4.63
2023-01-10T04:55:08.490Z,4.90
2023-01-10T04:57:30.721Z,4.47
2023-01-10T04:59:53.035Z,5.07
2023-01-10T05:02:15.362Z,4.30
2023-01-10T05:04:37.889Z,4.70
2023-01-10T05:07:00.154Z,4.10
2023-01-10T05:09:22.614Z,4.77
2023-01-10T05:11:45.135Z,3.90
2023-01-10T05:14:07.576Z,4.73
2023-01-10T05:16:31.566Z,5.00
2023-01-10T05:18:56.171Z,5.43
2023-01-10T05:21:21.316Z,4.60
2023-01-10T05:23:43.919Z,4.67
2023-01-10T05:26:14.570Z,4.63
2023-01-10T05:28:37.576Z,4.80
2023-01-10T05:31:00.890Z,5.60
2023-01-10T05:33:23.165Z,5.40
2023-01-10T05:35:45.513Z,5.30
2023-01-10T05:38:08.114Z,6.10
2023-01-10T05:40:36.652Z,5.80
2023-01-10T05:43:02.653Z,5.93
2023-01-10T05:45:24.967Z,5.53
2023-01-10T05:47:50.074Z,5.17
2023-01-10T05:50:13.521Z,5.57
2023-01-10T05:52:35.784Z,6.03
2023-01-10T05:54:58.309Z,6.50
2023-01-10T05:57:22.119Z,6.67
2023-01-10T05:59:44.603Z,6.20
2023-01-10T06:02:07.134Z,5.93
2023-01-10T06:04:29.401Z,5.83
2023-01-10T06:06:51.712Z,6.10
2023-01-10T06:09:18.269Z,7.17
2023-01-10T06:11:40.622Z,6.33
2023-01-10T06:14:03.668Z,5.60
2023-01-10T06:16:26.137Z,6.87
2023-01-10T06:18:48.672Z,5.73
2023-01-10T06:21:11.237Z,5.73
2023-01-10T06:23:33.491Z,6.33
2023-01-10T06:25:57.635Z,5.73
2023-01-10T06:28:20.068Z,6.40
2023-01-10T06:30:43.344Z,6.37
2023-01-10T06:33:07.683Z,6.10
2023-01-10T06:35:32.583Z,7.10
2023-01-10T06:37:54.889Z,6.77
2023-01-10T06:40:17.306Z,6.43
2023-01-10T06:42:41.560Z,6.30
2023-01-10T06:45:04.938Z,7.13
2023-01-10T06:47:27.426Z,6.60
2023-01-10T06:49:49.797Z,6.10
2023-01-10T06:52:12.303Z,6.03
2023-01-10T06:54:36.668Z,6.37
2023-01-10T06:56:58.959Z,6.20
2023-01-10T06:59:21.248Z,6.67
2023-01-10T07:01:52.522Z,5.83
2023-01-10T07:04:15.119Z,6.70
2023-01-10T07:06:38.278Z,6.13
2023-01-10T07:09:00.556Z,6.10
2023-01-10T07:11:26.169Z,6.37
2023-01-10T07:13:48.697Z,5.63
2023-01-10T07:16:12.521Z,5.53
2023-01-10T07:18:35.611Z,5.40
2023-01-10T07:20:57.854Z,5.53
2023-01-10T07:23:20.097Z,5.93
2023-01-10T07:25:42.446Z,6.17
2023-01-10T07:28:05.897Z,6.17
2023-01-10T07:30:28.316Z,6.77
2023-01-10T07:32:54.681Z,6.17
2023-01-10T07:35:19.950Z,5.67
2023-01-10T07:37:42.413Z,6.13
2023-01-10T07:40:04.910Z,7.37
2023-01-10T07:42:27.288Z,6.63
2023-01-10T07:44:49.729Z,7.17
2023-01-10T07:47:15.071Z,6.13
2023-01-10T07:49:37.680Z,6.13
2023-01-10T07:52:02.715Z,6.03
2023-01-10T07:54:27.733Z,7.47
2023-01-10T07:56:50.543Z,6.93
2023-01-10T07:59:12.790Z,6.70
2023-01-10T08:01:35.184Z,6.63
2023-01-10T08:03:58.556Z,5.93
2023-01-10T08:06:21.146Z,6.40
2023-01-10T08:08:43.594Z,6.37
2023-01-10T08:11:06.065Z,5.80
2023-01-10T08:13:28.524Z,5.73
2023-01-10T08:15:51.972Z,6.43
2023-01-10T08:18:14.432Z,5.70
2023-01-10T08:20:36.672Z,5.83
2023-01-10T08:22:59.607Z,6.80
2023-01-10T08:25:21.944Z,5.70
2023-01-10T08:27:45.554Z,5.47
2023-01-10T08:30:11.219Z,6.67
2023-01-10T08:32:33.667Z,5.43
2023-01-10T08:34:56.218Z,6.10
2023-01-10T08:37:18.447Z,5.43
2023-01-10T08:39:40.695Z,5.93
2023-01-10T08:42:02.993Z,5.57
2023-01-10T08:44:26.627Z,5.60
2023-01-10T08:46:49.320Z,6.17
2023-01-10T08:49:11.972Z,6.13
2023-01-10T08:51:34.259Z,5.50
2023-01-10T08:53:56.468Z,5.37
2023-01-10T08:56:18.724Z,5.97
2023-01-10T08:58:40.954Z,6.00
2023-01-10T09:01:07.961Z,6.80
2023-01-10T09:03:30.449Z,6.40
2023-01-10T09:05:52.739Z,6.03
2023-01-10T09:08:14.955Z,6.63
2023-01-10T09:10:37.332Z,6.10
2023-01-10T09:13:01.684Z,5.77
2023-01-10T09:15:25.462Z,7.67
2023-01-10T09:17:47.776Z,5.47
2023-01-10T09:20:10.503Z,6.10
2023-01-10T09:22:33.340Z,6.20
2023-01-10T09:24:55.659Z,7.50
2023-01-10T09:27:17.889Z,6.60
2023-01-10T09:29:40.126Z,5.63
2023-01-10T09:32:02.435Z,6.17
2023-01-10T09:34:25.034Z,6.10
2023-01-10T09:36:47.378Z,5.97
2023-01-10T09:39:09.617Z,5.70
2023-01-10T09:41:37.825Z,6.63
2023-01-10T09:44:02.903Z,5.90
2023-01-10T09:46:39.247Z,6.33
2023-01-10T09:49:20.372Z,6.33
2023-01-10T09:51:44.368Z,5.37
2023-01-10T09:54:12.847Z,6.10
2023-01-10T09:56:35.963Z,6.00
2023-01-10T09:58:59.125Z,5.00
2023-01-10T10:01:24.084Z,5.40
2023-01-10T10:04:06.279Z,5.33
2023-01-10T10:06:28.650Z,4.60
2023-01-10T10:08:51.553Z,5.60
2023-01-10T10:11:25.955Z,5.23
2023-01-10T10:13:51.361Z,4.90
2023-01-10T10:16:16.642Z,5.37
2023-01-10T10:18:43.907Z,6.43
2023-01-10T10:21:09.546Z,5.40
2023-01-10T10:23:43.582Z,5.33
2023-01-10T10:26:12.326Z,5.43
2023-01-10T10:29:04.729Z,5.40
2023-01-10T10:31:27.154Z,4.60
2023-01-10T10:33:59.220Z,4.47
2023-01-10T10:36:41.867Z,5.93
2023-01-10T10:39:04.541Z,5.70
2023-01-10T10:41:36.171Z,5.30
2023-01-10T10:44:03.989Z,5.20
2023-01-10T10:46:26.321Z,4.80
2023-01-10T10:48:57.538Z,5.33
2023-01-10T10:51:24.575Z,4.53
2023-01-10T10:53:48.237Z,4.87
2023-01-10T10:56:13.401Z,5.60
2023-01-10T10:58:35.712Z,4.73
2023-01-10T11:00:58.120Z,5.20
2023-01-10T11:03:28.568Z,4.87
2023-01-10T11:05:51.014Z,4.77
2023-01-10T11:08:14.052Z,7.30
2023-01-10T11:10:36.602Z,5.07
2023-01-10T11:13:00.382Z,4.70
2023-01-10T11:15:35.852Z,4.80
2023-01-10T11:18:27.824Z,5.10
2023-01-10T11:21:02.600Z,4.80
2023-01-10T11:23:47.969Z,5.57
2023-01-10T11:26:28.953Z,4.70
2023-01-10T11:29:04.542Z,5.03
2023-01-10T11:31:28.609Z,4.73
2023-01-10T11:33:50.992Z,4.90
2023-01-10T11:36:13.299Z,4.90
2023-01-10T11:38:36.204Z,4.90
2023-01-10T11:41:00.269Z,5.10
2023-01-10T11:43:25.234Z,5.37
2023-01-10T11:45:54.061Z,4.83
2023-01-10T11:48:21.372Z,4.37
2023-01-10T11:50:50.473Z,4.40
2023-01-10T11:53:31.475Z,4.40
2023-01-10T11:55:53.763Z,4.27
2023-01-10T11:58:16.003Z,5.60
2023-01-10T12:00:44.429Z,4.40
2023-01-10T12:03:37.485Z,4.20
2023-01-10T12:06:01.212Z,4.83
2023-01-10T12:08:33.689Z,4.23
2023-01-10T12:11:22.194Z,4.30
2023-01-10T12:13:46.328Z,4.17
2023-01-10T12:16:18.489Z,4.83
2023-01-10T12:18:40.781Z,5.03
2023-01-10T12:21:03.233Z,4.13
2023-01-10T12:23:25.975Z,4.60
2023-01-10T12:25:50.022Z,4.57
2023-01-10T12:28:19.239Z,5.53
2023-01-10T12:30:45.922Z,4.10
2023-01-10T12:33:12.186Z,4.23
2023-01-10T12:35:57.476Z,4.10
2023-01-10T12:38:41.415Z,4.47
2023-01-10T12:41:03.932Z,4.77
2023-01-10T12:43:49.852Z,3.87
2023-01-10T12:46:38.257Z,4.50
2023-01-10T12:49:05.896Z,4.83
2023-01-10T12:51:28.824Z,4.83
2023-01-10T12:53:54.533Z,4.20
2023-01-10T12:56:17.611Z,4.43
2023-01-10T12:58:39.979Z,4.70
2023-01-10T13:01:03.117Z,4.70
2023-01-10T13:03:33.636Z,4.13
2023-01-10T13:05:59.577Z,3.90
2023-01-10T13:08:24.187Z,4.40
2023-01-10T13:10:49.758Z,3.90
2023-01-10T13:13:31.584Z,4.47
2023-01-10T13:15:56.585Z,4.17
2023-01-10T13:18:23.920Z,4.50
2023-01-10T13:20:46.252Z,4.63
2023-01-10T13:23:30.053Z,4.87
2023-01-10T13:25:56.671Z,4.37
2023-01-10T13:28:24.215Z,4.33
2023-01-10T13:30:51.929Z,4.30
2023-01-10T13:33:36.006Z,5.30
2023-01-10T13:36:00.016Z,4.53
2023-01-10T13:38:24.131Z,4.33
2023-01-10T13:40:57.005Z,4.43
2023-01-10T13:43:37.527Z,4.70
2023-01-10T13:46:18.301Z,4.00
2023-01-10T13:48:40.618Z,5.60
2023-01-10T13:51:19.166Z,4.83
2023-01-10T13:53:44.339Z,5.50
2023-01-10T13:56:26.591Z,3.97
2023-01-10T13:59:07.366Z,4.13
2023-01-10T14:01:52.986Z,4.07
2023-01-10T14:04:22.676Z,3.90
2023-01-10T14:06:45.140Z,4.60
2023-01-10T14:09:27.511Z,4.30
2023-01-10T14:11:58.868Z,4.37
2023-01-10T14:14:33.182Z,4.30
2023-01-10T14:17:15.824Z,4.47
2023-01-10T14:19:39.280Z,4.40
2023-01-10T14:22:02.583Z,4.50
2023-01-10T14:24:25.423Z,3.77
2023-01-10T14:26:47.726Z,4.10
2023-01-10T14:29:14.442Z,4.53
2023-01-10T14:31:38.690Z,3.93
2023-01-10T14:34:02.959Z,3.80
2023-01-10T14:36:30.692Z,3.93
2023-01-10T14:38:56.802Z,4.60
2023-01-10T14:41:25.903Z,3.77
2023-01-10T14:44:13.723Z,3.50
2023-01-10T14:46:46.459Z,5.00
2023-01-10T14:49:26.760Z,4.17
2023-01-10T14:51:51.973Z,3.77
2023-01-10T14:54:15.104Z,3.90
2023-01-10T14:56:38.817Z,4.67
2023-01-10T14:59:01.049Z,3.67
2023-01-10T15:01:25.091Z,4.07
2023-01-10T15:03:47.412Z,4.67
2023-01-10T15:06:09.661Z,3.93
2023-01-10T15:08:32.143Z,3.80
2023-01-10T15:10:57.231Z,3.50
2023-01-10T15:13:20.373Z,3.40
2023-01-10T15:15:44.121Z,4.27
2023-01-10T15:18:20.233Z,3.57
2023-01-10T15:20:42.747Z,3.37
2023-01-10T15:23:04.928Z,4.67
2023-01-10T15:25:30.265Z,4.03
2023-01-10T15:27:52.753Z,4.17
2023-01-10T15:30:31.595Z,3.73
2023-01-10T15:32:55.333Z,3.90
2023-01-10T15:35:20.442Z,3.87
2023-01-10T15:37:55.401Z,4.30
2023-01-10T15:40:22.657Z,4.90
2023-01-10T15:42:44.954Z,3.53
2023-01-10T15:45:25.753Z,4.00
2023-01-10T15:47:52.919Z,3.93
2023-01-10T15:50:21.309Z,3.30
2023-01-10T15:52:54.179Z,4.47
2023-01-10T15:55:35.181Z,3.90
2023-01-10T15:57:58.858Z,4.10
2023-01-10T16:00:22.794Z,3.83
2023-01-10T16:02:45.868Z,3.80
2023-01-10T16:05:09.309Z,3.63
2023-01-10T16:07:33.683Z,3.83
2023-01-10T16:09:58.031Z,3.47
2023-01-10T16:12:47.338Z,3.43
2023-01-10T16:15:17.691Z,4.87
2023-01-10T16:17:40.024Z,4.10
2023-01-10T16:20:02.252Z,4.10
2023-01-10T16:22:24.626Z,3.83
2023-01-10T16:24:47.546Z,3.90
2023-01-10T16:27:10.834Z,5.20
2023-01-10T16:29:33.336Z,4.00
2023-01-10T16:31:56.296Z,3.30
2023-01-10T16:34:18.746Z,3.60
2023-01-10T16:36:41.348Z,4.50
2023-01-10T16:39:07.557Z,3.93
2023-01-10T16:41:48.818Z,4.27
2023-01-10T16:44:11.045Z,3.73
2023-01-10T16:46:33.362Z,3.80
2023-01-10T16:48:55.734Z,4.37
2023-01-10T16:51:19.568Z,4.10
2023-01-10T16:53:41.784Z,4.40
2023-01-10T16:56:04.147Z,3.80
2023-01-10T16:58:26.406Z,4.50
2023-01-10T17:00:49.504Z,3.60
2023-01-10T17:03:37.876Z,3.80
2023-01-10T17:06:00.188Z,4.03
2023-01-10T17:08:24.277Z,3.87
2023-01-10T17:10:47.826Z,4.90
2023-01-10T17:13:10.330Z,4.33
2023-01-10T17:15:32.613Z,4.20
2023-01-10T17:17:54.948Z,3.73
2023-01-10T17:20:17.394Z,4.20
2023-01-10T17:22:39.805Z,4.70
2023-01-10T17:25:02.153Z,4.07
2023-01-10T17:27:24.395Z,4.03
2023-01-10T17:29:46.767Z,4.80
2023-01-10T17:32:08.981Z,4.33
2023-01-10T17:34:37.120Z,4.07
2023-01-10T17:36:59.333Z,5.07
2023-01-10T17:39:21.536Z,4.40
2023-01-10T17:41:44.631Z,4.10
2023-01-10T17:44:07.099Z,5.73
2023-01-10T17:46:29.355Z,4.10
2023-01-10T17:48:51.859Z,5.27
2023-01-10T17:51:14.368Z,4.63
2023-01-10T17:53:36.639Z,5.30
2023-01-10T17:56:01.027Z,4.23
2023-01-10T17:58:23.443Z,4.67
2023-01-10T18:00:46.283Z,4.30
2023-01-10T18:03:09.249Z,4.30
2023-01-10T18:05:32.475Z,3.93
2023-01-10T18:07:54.761Z,3.80
2023-01-10T18:10:17.018Z,4.93
2023-01-10T18:12:39.684Z,4.40
2023-01-10T18:15:02.093Z,4.63
2023-01-10T18:17:24.308Z,4.43
2023-01-10T18:19:46.948Z,4.90
2023-01-10T18:22:27.907Z,4.80
2023-01-10T18:24:51.866Z,4.23
2023-01-10T18:27:14.210Z,3.83
2023-01-10T18:29:36.657Z,4.10
2023-01-10T18:32:01.549Z,4.77
2023-01-10T18:34:23.900Z,4.20
2023-01-10T18:36:46.273Z,4.10
2023-01-10T18:39:08.566Z,4.37
2023-01-10T18:41:31.607Z,3.90
2023-01-10T18:43:53.883Z,3.90
2023-01-10T18:46:20.647Z,4.27
2023-01-10T18:48:43.004Z,4.00
2023-01-10T18:51:05.763Z,3.97
2023-01-10T18:53:28.393Z,4.40
2023-01-10T18:56:01.344Z,4.57
2023-01-10T18:58:24.442Z,3.90
2023-01-10T19:00:46.692Z,4.33
2023-01-10T19:03:09.036Z,4.33
2023-01-10T19:05:31.232Z,3.80
2023-01-10T19:07:53.544Z,3.93
2023-01-10T19:10:16.569Z,4.10
2023-01-10T19:12:42.450Z,3.73
2023-01-10T19:15:04.768Z,4.37
2023-01-10T19:17:27.712Z,4.47
2023-01-10T19:19:49.936Z,3.60
2023-01-10T19:22:12.190Z,4.10
2023-01-10T19:24:37.636Z,3.87
2023-01-10T19:26:59.873Z,4.20
2023-01-10T19:29:22.537Z,4.40
2023-01-10T19:31:46.456Z,4.00
2023-01-10T19:34:08.721Z,4.53
2023-01-10T19:36:34.763Z,4.37
2023-01-10T19:38:57.996Z,4.40
2023-01-10T19:41:20.334Z,3.93
2023-01-10T19:43:42.525Z,4.70
2023-01-10T19:46:08.453Z,4.77
2023-01-10T19:48:30.713Z,5.40
2023-01-10T19:50:52.948Z,4.70
2023-01-10T19:53:15.679Z,4.97
2023-01-10T19:55:37.897Z,5.23
2023-01-10T19:58:01.428Z,4.73
2023-01-10T20:00:23.810Z,4.77
2023-01-10T20:02:46.134Z,5.07
2023-01-10T20:05:08.762Z,5.27
2023-01-10T20:07:31.051Z,5.00
2023-01-10T20:09:56.913Z,4.40
2023-01-10T20:12:19.138Z,4.70
2023-01-10T20:14:41.456Z,4.13
2023-01-10T20:17:04.979Z,3.80
2023-01-10T20:19:27.308Z,3.70
2023-01-10T20:21:49.520Z,3.50
2023-01-10T20:24:19.006Z,3.60
2023-01-10T20:26:41.514Z,3.47
2023-01-10T20:29:04.527Z,3.67
2023-01-10T20:31:26.933Z,3.40
2023-01-10T20:33:49.562Z,3.20
2023-01-10T20:36:13.915Z,3.27
2023-01-10T20:38:37.396Z,2.90
2023-01-10T20:41:04.039Z,3.73
2023-01-10T20:43:26.869Z,4.17
2023-01-10T20:45:49.118Z,4.10
2023-01-10T20:48:11.356Z,3.70
2023-01-10T20:50:33.642Z,3.70
2023-01-10T20:52:55.892Z,3.80
2023-01-10T20:55:20.192Z,3.70
2023-01-10T20:57:42.505Z,3.50
2023-01-10T21:00:04.953Z,3.90
2023-01-10T21:02:27.297Z,4.03
2023-01-10T21:04:50.640Z,3.47
2023-01-10T21:07:13.073Z,3.50
2023-01-10T21:09:35.402Z,3.10
2023-01-10T21:12:07.369Z,3.27
2023-01-10T21:14:35.934Z,3.43
2023-01-10T21:16:58.710Z,3.37
2023-01-10T21:19:21.046Z,3.23
2023-01-10T21:21:44.232Z,3.20
2023-01-10T21:24:07.192Z,3.33
2023-01-10T21:26:29.458Z,5.57
2023-01-10T21:28:51.824Z,3.47
2023-01-10T21:31:18.578Z,3.53
2023-01-10T21:33:40.955Z,3.60
2023-01-10T21:36:03.240Z,3.80
2023-01-10T21:38:27.282Z,3.70
2023-01-10T21:40:49.630Z,3.97
2023-01-10T21:43:11.857Z,4.37
2023-01-10T21:45:34.867Z,3.93
2023-01-10T21:47:57.107Z,3.67
2023-01-10T21:50:22.367Z,3.90
2023-01-10T21:52:44.942Z,4.37
2023-01-10T21:55:07.563Z,4.93
2023-01-10T21:57:30.695Z,4.90
2023-01-10T21:59:53.468Z,4.90
2023-01-10T22:02:16.059Z,4.60
2023-01-10T22:04:38.293Z,5.27
2023-01-10T22:07:01.513Z,5.33
2023-01-10T22:09:25.191Z,5.13
2023-01-10T22:11:47.443Z,5.73
2023-01-10T22:14:11.904Z,5.37
2023-01-10T22:16:34.197Z,5.43
2023-01-10T22:18:58.394Z,5.30
2023-01-10T22:21:21.564Z,5.87
2023-01-10T22:23:48.208Z,6.07
2023-01-10T22:26:11.548Z,6.30
2023-01-10T22:28:34.086Z,6.47
2023-01-10T22:30:56.389Z,6.37
2023-01-10T22:33:18.679Z,5.83
2023-01-10T22:35:40.968Z,6.03
2023-01-10T22:38:03.239Z,6.20
2023-01-10T22:40:25.582Z,5.63
2023-01-10T22:42:52.185Z,5.50
2023-01-10T22:45:14.503Z,5.60
2023-01-10T22:47:38.317Z,5.57
2023-01-10T22:50:00.576Z,5.27
2023-01-10T22:52:22.941Z,5.47
2023-01-10T22:54:45.191Z,5.43
2023-01-10T22:57:07.410Z,4.90
2023-01-10T23:02:12.122Z,5.43
2023-01-10T23:04:34.353Z,5.13
2023-01-10T23:06:56.965Z,4.53
2023-01-10T23:09:23.297Z,5.03
2023-01-10T23:11:45.548Z,4.80
2023-01-10T23:14:07.732Z,5.27
2023-01-10T23:16:30.308Z,4.67
2023-01-10T23:18:52.551Z,4.27
2023-01-10T23:21:14.794Z,4.73
2023-01-10T23:23:37.298Z,4.83
2023-01-10T23:26:03.356Z,4.33
2023-01-10T23:28:25.539Z,4.60
2023-01-10T23:30:47.763Z,5.00
2023-01-10T23:33:10.020Z,5.37
2023-01-10T23:35:32.189Z,4.87
2023-01-10T23:37:54.507Z,4.73
2023-01-10T23:40:16.826Z,4.83
2023-01-10T23:42:39.067Z,5.43
2023-01-10T23:45:01.240Z,4.67
2023-01-10T23:47:23.491Z,5.30
2023-01-10T23:49:48.846Z,4.93
2023-01-10T23:52:11.068Z,5.40
2023-01-10T23:54:33.307Z,6.10
2023-01-10T23:56:55.897Z,6.37
2023-01-10T23:59:18.205Z,6.03
